Time;durP1;ratioP1;P1;durP2;ratioP2;P2;SDS_P1;SDS_P2;PMS_P1;PMS_P2;Temp;Humidity;BMP_temperature;BMP_pressure;BME280_temperature;BME280_humidity;BME280_pressure;Samples;Min_cycle;Max_cycle;Signal;HPM_P1;HPM_P2
2022/12/29 00:01:47;;;;;;;0.85;0.60;;;;;;;;;;5054970;28;20411;-79
2022/12/29 00:04:14;;;;;;;0.90;0.60;;;;;;;;;;5054227;28;20182;-80
2022/12/29 00:06:40;;;;;;;0.95;0.50;;;;;;;;;;5038614;28;21003;-79
2022/12/29 00:09:06;;;;;;;0.75;0.57;;;;;;;;;;5055488;28;20233;-80
2022/12/29 00:11:32;;;;;;;0.70;0.60;;;;;;;;;;5038279;28;20626;-80
2022/12/29 00:16:43;;;;;;;0.70;0.50;;;;;;;;;;5055486;28;20431;-79
2022/12/29 00:35:40;;;;;;;0.60;0.40;;;;;;;;;;5055383;28;20188;-79
2022/12/29 00:46:21;;;;;;;0.73;0.50;;;;;;;;;;5055055;28;20648;-80
2022/12/29 00:51:32;;;;;;;0.70;0.50;;;;;;;;;;5052333;28;20521;-81
2022/12/29 00:53:58;;;;;;;0.60;0.50;;;;;;;;;;5050811;28;20209;-81
2022/12/29 00:56:24;;;;;;;0.63;0.60;;;;;;;;;;5053033;28;20407;-79
2022/12/29 00:58:50;;;;;;;0.60;0.50;;;;;;;;;;5054185;28;20292;-80
2022/12/29 01:01:16;;;;;;;1.95;0.90;;;;;;;;;;5053647;28;20228;-80
2022/12/29 01:03:42;;;;;;;0.70;0.55;;;;;;;;;;5054952;28;20177;-80
2022/12/29 01:06:09;;;;;;;0.70;0.50;;;;;;;;;;5037098;28;20181;-81
2022/12/29 01:08:36;;;;;;;0.60;0.40;;;;;;;;;;5055199;28;20466;-79
2022/12/29 01:11:07;;;;;;;0.70;0.50;;;;;;;;;;5053855;28;20625;-79
2022/12/29 01:13:33;;;;;;;0.73;0.50;;;;;;;;;;5054965;28;20204;-79
2022/12/29 01:15:59;;;;;;;0.52;0.40;;;;;;;;;;5053895;28;20189;-79
2022/12/29 01:18:25;;;;;;;0.60;0.50;;;;;;;;;;5053754;28;20621;-79
2022/12/29 01:20:52;;;;;;;0.50;0.40;;;;;;;;;;5055318;28;20170;-79
2022/12/29 01:23:18;;;;;;;1.00;0.50;;;;;;;;;;5053840;28;20243;-80
2022/12/29 01:25:44;;;;;;;0.50;0.40;;;;;;;;;;5054946;28;20561;-79
2022/12/29 01:28:10;;;;;;;0.80;0.60;;;;;;;;;;5054900;28;20197;-80
2022/12/29 01:30:36;;;;;;;0.60;0.50;;;;;;;;;;5055135;28;20189;-79
2022/12/29 01:33:03;;;;;;;0.70;0.50;;;;;;;;;;5053526;28;20185;-79
2022/12/29 01:35:29;;;;;;;0.60;0.50;;;;;;;;;;5054801;28;20634;-79
2022/12/29 01:37:55;;;;;;;0.73;0.50;;;;;;;;;;5054901;28;20414;-80
2022/12/29 01:40:21;;;;;;;1.20;0.60;;;;;;;;;;5053599;28;20416;-80
2022/12/29 01:42:47;;;;;;;0.70;0.50;;;;;;;;;;5054475;28;20257;-81
2022/12/29 01:45:14;;;;;;;2.70;0.82;;;;;;;;;;5054428;28;20404;-80
2022/12/29 01:47:40;;;;;;;0.80;0.70;;;;;;;;;;5037312;28;20197;-80
2022/12/29 01:50:18;;;;;;;1.00;0.70;;;;;;;;;;5054631;28;20181;-80
2022/12/29 01:52:47;;;;;;;0.65;0.50;;;;;;;;;;5054745;28;20399;-80
2022/12/29 01:55:13;;;;;;;2.70;0.77;;;;;;;;;;5054158;28;20273;-80
2022/12/29 01:57:41;;;;;;;0.85;0.70;;;;;;;;;;5053810;28;20404;-80
2022/12/29 02:00:09;;;;;;;1.35;0.70;;;;;;;;;;5055152;28;20173;-79
2022/12/29 02:02:36;;;;;;;1.42;0.77;;;;;;;;;;5054535;28;20173;-79
2022/12/29 02:05:07;;;;;;;0.80;0.60;;;;;;;;;;5055237;28;20257;-79
2022/12/29 02:07:34;;;;;;;0.70;0.70;;;;;;;;;;5056566;28;20170;-79
2022/12/29 02:10:01;;;;;;;1.00;0.60;;;;;;;;;;5058260;28;20458;-80
2022/12/29 02:12:27;;;;;;;1.80;0.70;;;;;;;;;;5057002;28;20192;-79
2022/12/29 02:14:56;;;;;;;0.88;0.70;;;;;;;;;;5058074;28;20233;-79
2022/12/29 02:17:43;;;;;;;3.47;0.80;;;;;;;;;;5058537;28;20169;-79
2022/12/29 02:20:21;;;;;;;2.10;1.00;;;;;;;;;;5058278;28;20392;-79
2022/12/29 02:23:06;;;;;;;1.05;0.90;;;;;;;;;;5056790;28;20462;-79
2022/12/29 02:25:37;;;;;;;1.52;1.00;;;;;;;;;;5057676;28;20188;-79
2022/12/29 02:28:03;;;;;;;1.05;0.70;;;;;;;;;;5057926;28;20200;-79
2022/12/29 02:30:37;;;;;;;2.10;0.80;;;;;;;;;;5057504;28;20173;-79
2022/12/29 02:33:21;;;;;;;0.70;0.70;;;;;;;;;;5057780;28;20816;-80
2022/12/29 02:36:07;;;;;;;2.63;0.95;;;;;;;;;;5058143;28;20189;-79
2022/12/29 02:38:41;;;;;;;1.38;1.08;;;;;;;;;;5057380;28;20183;-79
2022/12/29 02:41:26;;;;;;;0.97;0.60;;;;;;;;;;5057262;28;20173;-80
2022/12/29 02:44:05;;;;;;;1.20;0.50;;;;;;;;;;5058240;28;20408;-79
2022/12/29 02:46:37;;;;;;;0.97;0.70;;;;;;;;;;5056107;28;20170;-79
2022/12/29 02:49:11;;;;;;;1.00;0.70;;;;;;;;;;5057824;28;20405;-79
2022/12/29 02:51:44;;;;;;;0.93;0.82;;;;;;;;;;5056389;28;20182;-80
2022/12/29 02:56:55;;;;;;;0.77;0.68;;;;;;;;;;5057350;28;20177;-80
2022/12/29 02:59:22;;;;;;;1.67;0.70;;;;;;;;;;5055814;28;20169;-80
2022/12/29 03:02:19;;;;;;;0.90;0.60;;;;;;;;;;5055982;28;20185;-80
2022/12/29 03:05:04;;;;;;;0.70;0.55;;;;;;;;;;5055847;28;20536;-80
2022/12/29 03:07:36;;;;;;;0.70;0.60;;;;;;;;;;5057104;28;20264;-80
2022/12/29 03:10:22;;;;;;;1.17;0.70;;;;;;;;;;5055025;28;20237;-80
2022/12/29 03:16:07;;;;;;;0.90;0.70;;;;;;;;;;5057114;28;20227;-79
2022/12/29 03:18:42;;;;;;;0.80;0.68;;;;;;;;;;5056421;28;20165;-79
2022/12/29 03:21:12;;;;;;;1.00;0.73;;;;;;;;;;5056717;28;20196;-80
2022/12/29 03:23:39;;;;;;;2.90;0.70;;;;;;;;;;5056646;28;20205;-79
2022/12/29 03:26:08;;;;;;;0.95;0.60;;;;;;;;;;5055373;28;20174;-80
2022/12/29 03:28:39;;;;;;;1.08;0.70;;;;;;;;;;5055979;28;20560;-80
2022/12/29 03:31:07;;;;;;;0.70;0.60;;;;;;;;;;5055060;28;20188;-80
2022/12/29 03:33:33;;;;;;;1.25;0.57;;;;;;;;;;5056683;28;20734;-80
2022/12/29 03:36:00;;;;;;;0.80;0.60;;;;;;;;;;5056543;28;20173;-81
2022/12/29 03:38:31;;;;;;;0.60;0.50;;;;;;;;;;5056109;28;20191;-79
2022/12/29 03:40:59;;;;;;;0.93;0.82;;;;;;;;;;5056216;28;20232;-79
2022/12/29 03:43:26;;;;;;;1.25;0.50;;;;;;;;;;5055977;28;20191;-79
2022/12/29 03:45:52;;;;;;;1.95;0.60;;;;;;;;;;5054996;28;20303;-79
2022/12/29 03:48:18;;;;;;;0.70;0.50;;;;;;;;;;5054708;28;20193;-82
2022/12/29 03:50:44;;;;;;;0.68;0.60;;;;;;;;;;5055254;28;20177;-79
2022/12/29 03:53:10;;;;;;;1.25;0.60;;;;;;;;;;5056202;28;20637;-79
2022/12/29 03:55:36;;;;;;;0.93;0.50;;;;;;;;;;5055786;28;20217;-79
2022/12/29 03:58:02;;;;;;;0.70;0.60;;;;;;;;;;5056375;28;20172;-81
2022/12/29 04:00:28;;;;;;;0.80;0.68;;;;;;;;;;5054760;28;20177;-79
2022/12/29 04:02:54;;;;;;;1.35;0.60;;;;;;;;;;5054773;28;20177;-79
2022/12/29 04:05:21;;;;;;;1.23;0.60;;;;;;;;;;5054500;28;20526;-80
2022/12/29 04:07:47;;;;;;;1.20;1.02;;;;;;;;;;5056443;28;20166;-79
2022/12/29 04:10:13;;;;;;;0.60;0.52;;;;;;;;;;5037877;28;20299;-79
2022/12/29 04:12:41;;;;;;;0.80;0.60;;;;;;;;;;5055381;28;20278;-79
2022/12/29 04:15:08;;;;;;;1.45;0.70;;;;;;;;;;5056086;28;20228;-79
2022/12/29 04:17:34;;;;;;;1.20;0.68;;;;;;;;;;5055283;28;20264;-82
2022/12/29 04:22:44;;;;;;;0.70;0.60;;;;;;;;;;5055703;28;20192;-79
2022/12/29 04:25:10;;;;;;;3.00;0.80;;;;;;;;;;5054580;28;20189;-80
2022/12/29 04:27:36;;;;;;;0.80;0.60;;;;;;;;;;5055539;28;20173;-80
2022/12/29 04:30:03;;;;;;;1.95;0.60;;;;;;;;;;5037757;28;20194;-79
2022/12/29 04:32:29;;;;;;;1.50;0.70;;;;;;;;;;5054931;28;20173;-80
2022/12/29 04:34:55;;;;;;;0.87;0.70;;;;;;;;;;5054515;28;20221;-79
2022/12/29 04:37:21;;;;;;;2.70;1.07;;;;;;;;;;5054533;28;20531;-81
2022/12/29 04:39:47;;;;;;;1.25;0.60;;;;;;;;;;5055523;28;20507;-79
2022/12/29 04:42:13;;;;;;;1.30;0.70;;;;;;;;;;5054037;28;20197;-79
2022/12/29 04:44:39;;;;;;;1.23;0.70;;;;;;;;;;5037433;28;20431;-80
2022/12/29 04:47:05;;;;;;;1.10;0.70;;;;;;;;;;5055488;28;20173;-79
2022/12/29 04:49:31;;;;;;;1.63;0.90;;;;;;;;;;5037378;28;20185;-79
2022/12/29 04:51:57;;;;;;;1.50;0.90;;;;;;;;;;5055290;28;20169;-79
2022/12/29 04:54:23;;;;;;;0.60;0.50;;;;;;;;;;5055261;28;20530;-81
2022/12/29 04:56:49;;;;;;;1.60;0.70;;;;;;;;;;5055080;28;20185;-79
2022/12/29 04:59:15;;;;;;;0.70;0.60;;;;;;;;;;5050454;28;20190;-81
2022/12/29 05:01:42;;;;;;;0.70;0.50;;;;;;;;;;5047782;28;20549;-80
2022/12/29 05:04:08;;;;;;;0.70;0.57;;;;;;;;;;5048623;28;20234;-79
2022/12/29 05:06:34;;;;;;;1.60;0.70;;;;;;;;;;5049854;28;20411;-81
2022/12/29 05:09:00;;;;;;;3.80;0.93;;;;;;;;;;5050056;28;20560;-80
2022/12/29 05:11:26;;;;;;;1.83;0.70;;;;;;;;;;5049452;28;20181;-81
2022/12/29 05:13:52;;;;;;;1.35;0.60;;;;;;;;;;5052159;28;20665;-79
2022/12/29 05:16:18;;;;;;;1.83;0.70;;;;;;;;;;5053888;28;20250;-79
2022/12/29 05:18:44;;;;;;;1.67;0.63;;;;;;;;;;5054780;28;20184;-79
2022/12/29 05:21:10;;;;;;;2.25;0.80;;;;;;;;;;5054083;28;20185;-79
2022/12/29 05:23:36;;;;;;;1.23;0.50;;;;;;;;;;5053264;28;20261;-80
2022/12/29 05:26:02;;;;;;;1.57;0.70;;;;;;;;;;5053906;28;20444;-79
2022/12/29 05:28:28;;;;;;;1.13;0.70;;;;;;;;;;5053372;28;20426;-79
2022/12/29 05:30:54;;;;;;;4.70;1.10;;;;;;;;;;5054989;28;20188;-79
2022/12/29 05:33:20;;;;;;;0.70;0.60;;;;;;;;;;5055239;28;20522;-79
2022/12/29 05:35:46;;;;;;;0.90;0.68;;;;;;;;;;5053400;28;20415;-79
2022/12/29 05:38:12;;;;;;;0.70;0.70;;;;;;;;;;5054976;28;20287;-79
2022/12/29 05:40:38;;;;;;;0.73;0.60;;;;;;;;;;5054808;28;20209;-79
2022/12/29 05:43:04;;;;;;;0.90;0.80;;;;;;;;;;5040912;28;20185;-79
2022/12/29 05:45:30;;;;;;;0.75;0.60;;;;;;;;;;5058816;28;20196;-79
2022/12/29 05:47:56;;;;;;;0.97;0.63;;;;;;;;;;5059038;28;20260;-79
2022/12/29 05:50:22;;;;;;;0.80;0.50;;;;;;;;;;5059211;28;20892;-79
2022/12/29 05:52:48;;;;;;;1.07;0.70;;;;;;;;;;5057029;28;20415;-81
2022/12/29 05:55:14;;;;;;;2.80;0.77;;;;;;;;;;5057614;28;20513;-80
2022/12/29 05:57:40;;;;;;;1.52;0.73;;;;;;;;;;5058715;28;20408;-78
2022/12/29 06:00:07;;;;;;;1.70;0.80;;;;;;;;;;5058412;28;20177;-79
2022/12/29 06:02:33;;;;;;;1.40;0.85;;;;;;;;;;5057985;28;20404;-79
2022/12/29 06:04:59;;;;;;;2.27;1.03;;;;;;;;;;5057178;28;20706;-80
2022/12/29 06:07:25;;;;;;;4.03;0.60;;;;;;;;;;5057429;28;20476;-80
2022/12/29 06:09:51;;;;;;;0.70;0.60;;;;;;;;;;5056958;28;20464;-78
2022/12/29 06:12:17;;;;;;;0.93;0.60;;;;;;;;;;5057476;28;20173;-79
2022/12/29 06:14:43;;;;;;;1.53;0.80;;;;;;;;;;5057915;28;20266;-79
2022/12/29 06:17:09;;;;;;;1.02;0.85;;;;;;;;;;5058394;28;20461;-79
2022/12/29 06:19:35;;;;;;;1.33;0.60;;;;;;;;;;5058455;28;20169;-79
2022/12/29 06:22:01;;;;;;;1.50;0.90;;;;;;;;;;5057378;28;20400;-78
2022/12/29 06:24:27;;;;;;;2.30;0.68;;;;;;;;;;5058386;28;20500;-80
2022/12/29 06:26:53;;;;;;;4.63;0.70;;;;;;;;;;5040231;28;20181;-81
2022/12/29 06:29:20;;;;;;;0.70;0.53;;;;;;;;;;5056706;28;20419;-79
2022/12/29 06:31:46;;;;;;;2.33;0.80;;;;;;;;;;5057381;28;20415;-79
2022/12/29 06:34:13;;;;;;;1.10;0.68;;;;;;;;;;5057841;28;20221;-79
2022/12/29 06:36:39;;;;;;;2.13;0.82;;;;;;;;;;5056305;28;20193;-79
2022/12/29 06:39:05;;;;;;;1.70;0.60;;;;;;;;;;5057734;28;20169;-80
2022/12/29 06:41:31;;;;;;;2.65;0.70;;;;;;;;;;5039466;28;20193;-80
2022/12/29 06:43:57;;;;;;;0.90;0.70;;;;;;;;;;5057973;28;20174;-79
2022/12/29 06:46:23;;;;;;;0.93;0.77;;;;;;;;;;5056378;28;20194;-79
2022/12/29 06:48:49;;;;;;;1.08;0.77;;;;;;;;;;5055867;28;20192;-79
2022/12/29 06:51:15;;;;;;;1.38;0.77;;;;;;;;;;5057574;28;20178;-79
2022/12/29 06:53:41;;;;;;;1.58;0.60;;;;;;;;;;5055764;28;20320;-80
2022/12/29 06:56:08;;;;;;;1.13;0.70;;;;;;;;;;5039600;28;20665;-80
2022/12/29 06:58:34;;;;;;;1.08;0.77;;;;;;;;;;5055567;28;20181;-80
2022/12/29 07:01:00;;;;;;;0.80;0.60;;;;;;;;;;5055776;28;20182;-79
2022/12/29 07:03:26;;;;;;;2.25;0.60;;;;;;;;;;5039797;28;20188;-79
2022/12/29 07:05:52;;;;;;;3.00;1.25;;;;;;;;;;5055771;28;20633;-79
2022/12/29 07:08:18;;;;;;;2.65;0.80;;;;;;;;;;5056083;28;20244;-79
2022/12/29 07:10:44;;;;;;;2.88;0.90;;;;;;;;;;5055640;28;20189;-79
2022/12/29 07:13:10;;;;;;;2.15;0.60;;;;;;;;;;5056184;28;20228;-79
2022/12/29 07:15:39;;;;;;;2.83;0.60;;;;;;;;;;5056515;28;20674;-79
2022/12/29 07:18:05;;;;;;;3.10;0.68;;;;;;;;;;5057684;28;20412;-79
2022/12/29 07:20:31;;;;;;;2.33;0.80;;;;;;;;;;5055902;28;20176;-80
2022/12/29 07:22:57;;;;;;;1.40;0.75;;;;;;;;;;5055964;28;20182;-79
2022/12/29 07:25:24;;;;;;;0.77;0.57;;;;;;;;;;5057011;28;20201;-79
2022/12/29 07:27:50;;;;;;;1.25;0.77;;;;;;;;;;5055342;28;20208;-79
2022/12/29 07:30:16;;;;;;;4.70;1.00;;;;;;;;;;5055341;28;20247;-79
2022/12/29 07:32:42;;;;;;;4.35;0.90;;;;;;;;;;5056080;28;20560;-80
2022/12/29 07:35:09;;;;;;;3.35;0.90;;;;;;;;;;5055414;28;20681;-79
2022/12/29 07:37:35;;;;;;;1.20;0.75;;;;;;;;;;5055451;28;20189;-79
2022/12/29 07:40:03;;;;;;;3.85;0.95;;;;;;;;;;5057179;28;20177;-79
2022/12/29 07:42:29;;;;;;;3.13;0.95;;;;;;;;;;5056757;28;20253;-79
2022/12/29 07:44:55;;;;;;;1.23;0.80;;;;;;;;;;5056701;28;20223;-79
2022/12/29 07:47:21;;;;;;;3.42;0.90;;;;;;;;;;5039258;28;20190;-78
2022/12/29 07:49:47;;;;;;;2.05;0.90;;;;;;;;;;5039202;28;20181;-79
2022/12/29 07:52:13;;;;;;;3.17;1.00;;;;;;;;;;5038921;28;20189;-78
2022/12/29 07:54:39;;;;;;;0.93;0.60;;;;;;;;;;5056628;28;20240;-79
2022/12/29 07:57:05;;;;;;;1.55;0.65;;;;;;;;;;5057331;28;20524;-78
2022/12/29 07:59:31;;;;;;;1.50;0.82;;;;;;;;;;5056130;28;20166;-79
2022/12/29 08:01:57;;;;;;;2.15;0.85;;;;;;;;;;5056875;28;20331;-78
2022/12/29 08:04:24;;;;;;;3.30;1.15;;;;;;;;;;5055917;28;20177;-78
2022/12/29 08:06:50;;;;;;;3.95;0.98;;;;;;;;;;5056358;28;20174;-77
2022/12/29 08:09:16;;;;;;;4.35;0.80;;;;;;;;;;5056911;28;20308;-79
2022/12/29 08:11:43;;;;;;;3.22;0.88;;;;;;;;;;5056272;28;20576;-79
2022/12/29 08:14:09;;;;;;;3.10;0.82;;;;;;;;;;5055455;28;20556;-79
2022/12/29 08:16:35;;;;;;;3.92;1.00;;;;;;;;;;5056291;28;20177;-80
2022/12/29 08:19:01;;;;;;;3.83;1.05;;;;;;;;;;5055687;28;20181;-79
2022/12/29 08:21:28;;;;;;;2.92;1.05;;;;;;;;;;5056585;28;20181;-78
2022/12/29 08:23:54;;;;;;;3.05;1.10;;;;;;;;;;5054833;28;20181;-79
2022/12/29 08:26:20;;;;;;;3.15;0.95;;;;;;;;;;5056412;28;20227;-79
2022/12/29 08:28:46;;;;;;;5.22;1.30;;;;;;;;;;5054610;28;20181;-79
2022/12/29 08:31:12;;;;;;;2.00;1.35;;;;;;;;;;5056352;28;20177;-78
2022/12/29 08:33:38;;;;;;;3.25;0.80;;;;;;;;;;5055674;28;20520;-79
2022/12/29 08:36:05;;;;;;;2.72;1.05;;;;;;;;;;5054769;28;20194;-79
2022/12/29 08:38:31;;;;;;;4.47;1.10;;;;;;;;;;5055454;28;20751;-78
2022/12/29 08:40:58;;;;;;;3.88;1.30;;;;;;;;;;5056032;28;20630;-78
2022/12/29 08:43:24;;;;;;;4.82;0.90;;;;;;;;;;5054605;28;20174;-78
2022/12/29 08:45:50;;;;;;;1.00;0.70;;;;;;;;;;5054626;28;20191;-78
2022/12/29 08:48:19;;;;;;;8.77;1.25;;;;;;;;;;5054689;28;20176;-78
2022/12/29 08:50:45;;;;;;;1.55;1.00;;;;;;;;;;5054583;28;20180;-79
2022/12/29 08:53:11;;;;;;;3.50;1.45;;;;;;;;;;5054862;28;20189;-79
2022/12/29 08:55:37;;;;;;;3.45;1.00;;;;;;;;;;5038161;28;20687;-79
2022/12/29 08:58:03;;;;;;;4.80;0.95;;;;;;;;;;5055813;28;20182;-78
2022/12/29 09:00:29;;;;;;;5.00;1.30;;;;;;;;;;5056160;28;20177;-78
2022/12/29 09:02:55;;;;;;;3.17;0.90;;;;;;;;;;5054522;28;20190;-79
2022/12/29 09:05:21;;;;;;;9.27;1.48;;;;;;;;;;5055822;28;20231;-78
2022/12/29 09:07:47;;;;;;;6.05;1.00;;;;;;;;;;5055544;28;20403;-78
2022/12/29 09:10:14;;;;;;;4.28;1.90;;;;;;;;;;5056004;28;20237;-79
2022/12/29 09:12:40;;;;;;;5.55;1.50;;;;;;;;;;5054665;28;20268;-79
2022/12/29 09:15:06;;;;;;;4.60;1.48;;;;;;;;;;5055458;28;20228;-78
2022/12/29 09:17:45;;;;;;;3.72;1.40;;;;;;;;;;5061611;28;20181;-78
2022/12/29 09:20:12;;;;;;;3.45;1.08;;;;;;;;;;5061450;28;20201;-77
2022/12/29 09:22:38;;;;;;;2.47;0.90;;;;;;;;;;5062296;28;20184;-82
2022/12/29 09:25:04;;;;;;;4.18;1.17;;;;;;;;;;5061455;28;20323;-78
2022/12/29 09:27:30;;;;;;;5.57;1.67;;;;;;;;;;5063202;28;20211;-78
2022/12/29 09:29:56;;;;;;;3.50;1.05;;;;;;;;;;5061188;28;20633;-78
2022/12/29 09:32:22;;;;;;;6.07;1.52;;;;;;;;;;5060952;28;20192;-78
2022/12/29 09:34:49;;;;;;;3.28;0.90;;;;;;;;;;5060868;28;20247;-78
2022/12/29 09:37:15;;;;;;;11.15;1.48;;;;;;;;;;5062506;28;20272;-78
2022/12/29 09:39:41;;;;;;;1.65;0.90;;;;;;;;;;5062177;28;20169;-79
2022/12/29 09:42:16;;;;;;;2.30;0.80;;;;;;;;;;5061364;28;20177;-77
2022/12/29 09:45:05;;;;;;;3.50;1.00;;;;;;;;;;5061772;28;20501;-80
2022/12/29 09:47:31;;;;;;;5.07;1.85;;;;;;;;;;5055622;28;20182;-78
2022/12/29 09:50:01;;;;;;;3.33;1.20;;;;;;;;;;5044451;28;20173;-79
2022/12/29 09:52:31;;;;;;;2.78;1.17;;;;;;;;;;5062371;28;20602;-79
2022/12/29 09:55:05;;;;;;;5.40;2.45;;;;;;;;;;5061251;28;20830;-79
2022/12/29 09:57:53;;;;;;;3.63;1.02;;;;;;;;;;5061352;28;20248;-78
2022/12/29 10:00:21;;;;;;;4.30;1.30;;;;;;;;;;5060295;28;20580;-78
2022/12/29 10:02:51;;;;;;;6.55;1.25;;;;;;;;;;5060796;28;20174;-80
2022/12/29 10:05:19;;;;;;;3.08;1.02;;;;;;;;;;5062011;28;20181;-79
2022/12/29 10:07:54;;;;;;;4.00;1.20;;;;;;;;;;5060627;28;20262;-79
2022/12/29 10:10:43;;;;;;;4.03;1.27;;;;;;;;;;5060688;28;20224;-81
2022/12/29 10:13:29;;;;;;;4.75;1.10;;;;;;;;;;5051174;28;20628;-79
2022/12/29 10:15:58;;;;;;;1.83;1.17;;;;;;;;;;5061451;28;20189;-79
2022/12/29 10:18:36;;;;;;;2.58;1.00;;;;;;;;;;5061949;28;20458;-80
2022/12/29 10:21:28;;;;;;;3.85;1.45;;;;;;;;;;5061672;28;20180;-79
2022/12/29 10:23:55;;;;;;;1.77;1.05;;;;;;;;;;5060503;28;20247;-79
2022/12/29 10:26:27;;;;;;;5.63;1.30;;;;;;;;;;5061721;28;20173;-79
2022/12/29 10:28:56;;;;;;;6.60;1.23;;;;;;;;;;5057186;28;20395;-80
2022/12/29 10:31:23;;;;;;;3.30;1.37;;;;;;;;;;5057069;28;20416;-79
2022/12/29 10:33:51;;;;;;;5.07;1.95;;;;;;;;;;5058390;28;20905;-80
2022/12/29 10:36:19;;;;;;;3.38;0.95;;;;;;;;;;5057228;28;20275;-79
2022/12/29 10:39:03;;;;;;;5.60;1.48;;;;;;;;;;5056927;28;20622;-80
2022/12/29 10:41:33;;;;;;;2.05;1.00;;;;;;;;;;5058181;28;20177;-81
2022/12/29 10:44:00;;;;;;;3.35;1.15;;;;;;;;;;5058384;28;20191;-79
2022/12/29 10:46:31;;;;;;;2.15;1.15;;;;;;;;;;5058822;28;20572;-79
2022/12/29 10:48:57;;;;;;;3.53;1.03;;;;;;;;;;5056196;28;20213;-80
2022/12/29 10:51:25;;;;;;;5.53;1.20;;;;;;;;;;5056919;28;20411;-80
2022/12/29 10:53:51;;;;;;;5.37;1.20;;;;;;;;;;5058467;28;20215;-80
2022/12/29 10:56:36;;;;;;;2.20;0.93;;;;;;;;;;5056686;28;20416;-80
2022/12/29 10:59:07;;;;;;;2.07;1.07;;;;;;;;;;5057221;28;20927;-79
2022/12/29 11:01:40;;;;;;;4.47;1.03;;;;;;;;;;5057621;28;20742;-79
2022/12/29 11:04:13;;;;;;;3.93;2.23;;;;;;;;;;5057512;28;20392;-79
2022/12/29 11:06:39;;;;;;;3.20;1.20;;;;;;;;;;5056119;28;20412;-80
2022/12/29 11:09:16;;;;;;;5.00;1.27;;;;;;;;;;5057160;28;20470;-79
2022/12/29 11:11:42;;;;;;;3.43;1.40;;;;;;;;;;5055875;28;20435;-80
2022/12/29 11:14:12;;;;;;;1.43;0.90;;;;;;;;;;5055799;28;20559;-79
2022/12/29 11:16:39;;;;;;;3.33;1.67;;;;;;;;;;5057177;28;20923;-79
2022/12/29 11:19:05;;;;;;;3.03;1.10;;;;;;;;;;5055888;28;20420;-79
2022/12/29 11:21:41;;;;;;;4.57;1.10;;;;;;;;;;5056927;28;21121;-78
2022/12/29 11:24:20;;;;;;;4.80;1.70;;;;;;;;;;5057012;28;20388;-80
2022/12/29 11:26:46;;;;;;;4.23;1.90;;;;;;;;;;5056949;28;20783;-82
2022/12/29 11:29:22;;;;;;;6.03;1.73;;;;;;;;;;5039651;28;20779;-79
2022/12/29 11:31:49;;;;;;;3.10;1.30;;;;;;;;;;5055813;28;20972;-80
2022/12/29 11:34:20;;;;;;;3.03;0.90;;;;;;;;;;5056841;28;20501;-82
2022/12/29 11:36:47;;;;;;;5.40;1.60;;;;;;;;;;5056568;28;20519;-84
2022/12/29 11:39:26;;;;;;;2.10;1.47;;;;;;;;;;5054443;28;20912;-80
2022/12/29 11:41:53;;;;;;;4.17;1.40;;;;;;;;;;5054676;28;20431;-80
2022/12/29 11:44:19;;;;;;;7.07;1.40;;;;;;;;;;5056718;28;20459;-80
2022/12/29 11:46:46;;;;;;;3.57;1.37;;;;;;;;;;5055930;28;20808;-79
2022/12/29 11:49:20;;;;;;;3.33;0.90;;;;;;;;;;5054931;28;20428;-81
2022/12/29 11:51:48;;;;;;;2.00;1.10;;;;;;;;;;5056738;28;20479;-84
2022/12/29 11:54:24;;;;;;;5.00;1.23;;;;;;;;;;5055026;28;20813;-80
2022/12/29 11:56:51;;;;;;;11.75;1.20;;;;;;;;;;5054426;28;20459;-80
2022/12/29 11:59:36;;;;;;;3.50;1.10;;;;;;;;;;5055187;28;20213;-80
2022/12/29 12:02:09;;;;;;;4.50;1.00;;;;;;;;;;5054796;28;20403;-80
2022/12/29 12:04:37;;;;;;;2.38;0.90;;;;;;;;;;5056131;28;20404;-79
2022/12/29 12:07:13;;;;;;;3.88;1.00;;;;;;;;;;5054704;28;20177;-82
2022/12/29 12:09:46;;;;;;;4.80;1.10;;;;;;;;;;5054403;28;20233;-82
2022/12/29 12:12:21;;;;;;;5.18;1.40;;;;;;;;;;5053892;28;20438;-82
2022/12/29 12:14:52;;;;;;;3.72;1.15;;;;;;;;;;5054272;28;20211;-79
2022/12/29 12:17:18;;;;;;;3.57;1.17;;;;;;;;;;5056379;28;20176;-80
2022/12/29 12:19:46;;;;;;;2.53;1.27;;;;;;;;;;5055557;28;20396;-80
2022/12/29 12:22:25;;;;;;;5.07;1.30;;;;;;;;;;5055182;28;20395;-80
2022/12/29 12:24:54;;;;;;;5.47;1.10;;;;;;;;;;5055117;28;20265;-81
2022/12/29 12:27:23;;;;;;;5.90;1.37;;;;;;;;;;5053595;28;20912;-82
2022/12/29 12:29:52;;;;;;;5.20;1.55;;;;;;;;;;5055005;28;20833;-86
2022/12/29 12:32:21;;;;;;;4.22;1.30;;;;;;;;;;5055219;28;20265;-79
2022/12/29 12:34:48;;;;;;;4.30;1.20;;;;;;;;;;5055002;28;20200;-81
2022/12/29 12:37:14;;;;;;;8.55;1.45;;;;;;;;;;5053953;28;20456;-82
2022/12/29 12:40:15;;;;;;;2.30;0.90;;;12.60;99.90;;;;;;5053983;28;20175;-79
2022/12/29 12:42:41;;;;;;;4.00;1.30;;;;;;;;;;5055368;28;20755;-79
2022/12/29 12:45:25;;;;;;;4.80;1.00;;;;;;;;;;5053905;28;20173;-82
2022/12/29 12:48:20;;;;;;;3.50;1.30;;;12.60;99.90;;;;;;5055088;28;20227;-82
2022/12/29 12:50:50;;;;;;;5.50;1.20;;;;;;;;;;5054745;28;20273;-83
2022/12/29 12:53:47;;;;;;;4.80;1.60;;;12.60;99.90;;;;;;5054188;28;20188;-82
2022/12/29 12:56:19;;;;;;;4.55;1.35;;;;;;;;;;5054779;28;20428;-82
2022/12/29 12:59:11;;;;;;;4.80;1.17;;;12.70;99.90;;;;;;5053667;28;20216;-80
2022/12/29 13:01:40;;;;;;;4.53;1.30;;;;;;;;;;5053586;28;20427;-82
2022/12/29 13:04:29;;;;;;;5.77;1.10;;;;;;;;;;5054511;28;20239;-82
2022/12/29 13:07:17;;;;;;;9.30;1.53;;;;;;;;;;5054459;28;21132;-82
2022/12/29 13:09:47;;;;;;;6.50;1.55;;;;;;;;;;5054383;28;20451;-82
2022/12/29 13:12:32;;;;;;;2.67;1.13;;;;;;;;;;5053721;28;20667;-82
2022/12/29 13:14:58;;;;;;;8.38;1.70;;;;;;;;;;5053038;28;20762;-82
2022/12/29 13:17:50;;;;;;;4.30;1.30;;;;;;;;;;5053098;28;20231;-83
2022/12/29 13:20:19;;;;;;;8.38;1.48;;;;;;;;;;5046600;28;20189;-77
2022/12/29 13:22:48;;;;;;;3.67;1.17;;;;;;;;;;5054066;28;20178;-78
2022/12/29 13:25:33;;;;;;;4.80;1.45;;;;;;;;;;5054096;28;20178;-76
2022/12/29 13:28:14;;;;;;;6.65;1.35;;;;;;;;;;5054906;28;20173;-76
2022/12/29 13:30:53;;;;;;;4.45;1.23;;;;;;;;;;5053981;28;20192;-78
2022/12/29 13:33:22;;;;;;;6.10;1.77;;;;;;;;;;5055063;28;20178;-80
2022/12/29 13:35:56;;;;;;;3.05;1.10;;;;;;;;;;5053432;28;20213;-80
2022/12/29 13:38:30;;;;;;;7.40;1.10;;;;;;;;;;5054071;28;20177;-79
2022/12/29 13:41:00;;;;;;;4.75;1.10;;;;;;;;;;5053979;28;20793;-78
2022/12/29 13:43:27;;;;;;;14.57;1.95;;;;;;;;;;5055126;28;20165;-77
2022/12/29 13:46:07;;;;;;;6.57;1.52;;;;;;;;;;5053056;28;20197;-78
2022/12/29 13:48:44;;;;;;;8.70;1.58;;;;;;;;;;5053714;28;20196;-77
2022/12/29 13:51:10;;;;;;;6.55;1.38;;;;;;;;;;5054341;28;20240;-79
2022/12/29 13:53:49;;;;;;;4.57;1.08;;;;;;;;;;5054976;28;20165;-79
2022/12/29 13:56:20;;;;;;;2.53;1.00;;;;;;;;;;5054367;28;20185;-80
2022/12/29 13:59:04;;;;;;;8.73;1.35;;;;;;;;;;5052956;28;20181;-80
2022/12/29 14:01:49;;;;;;;4.93;1.30;;;;;;;;;;5053036;28;20208;-79
2022/12/29 14:04:21;;;;;;;12.77;1.40;;;;;;;;;;5057122;28;20243;-78
2022/12/29 14:06:48;;;;;;;5.25;1.00;;;;;;;;;;5058713;28;20162;-79
2022/12/29 14:09:33;;;;;;;6.00;1.17;;;;;;;;;;5058760;28;21080;-79
2022/12/29 14:11:59;;;;;;;4.57;1.13;;;;;;;;;;5058619;28;20192;-78
2022/12/29 14:14:28;;;;;;;5.20;1.67;;;;;;;;;;5057432;28;20247;-78
2022/12/29 14:16:54;;;;;;;9.27;1.55;;;;;;;;;;5058224;28;20656;-79
2022/12/29 14:19:29;;;;;;;4.00;1.27;;;;;;;;;;5058348;28;20162;-78
2022/12/29 14:22:00;;;;;;;2.97;1.20;;;;;;;;;;5059001;28;20195;-83
2022/12/29 14:24:28;;;;;;;3.78;1.50;;;;;;;;;;5059132;28;20260;-76
2022/12/29 14:26:54;;;;;;;4.97;1.15;;;;;;;;;;5058601;28;20241;-76
2022/12/29 14:29:26;;;;;;;3.10;0.90;;;;;;;;;;5058664;28;20188;-76
2022/12/29 14:31:52;;;;;;;4.10;1.02;;;;;;;;;;5058213;28;20182;-76
2022/12/29 14:34:18;;;;;;;2.55;1.10;;;;;;;;;;5056971;28;20616;-76
2022/12/29 14:37:01;;;;;;;4.13;1.73;;;;;;;;;;5058437;28;20181;-76
2022/12/29 14:39:44;;;;;;;5.82;1.38;;;;;;;;;;5057645;28;20464;-76
2022/12/29 14:42:10;;;;;;;2.88;1.00;;;;;;;;;;5056805;28;20189;-76
2022/12/29 14:44:48;;;;;;;4.13;1.10;;;;;;;;;;5056741;28;20641;-76
2022/12/29 14:47:34;;;;;;;4.43;1.35;;;;;;;;;;5056628;28;20416;-77
2022/12/29 14:50:22;;;;;;;3.92;1.10;;;;;;;;;;5056673;28;20670;-76
2022/12/29 14:52:50;;;;;;;5.25;1.42;;;;;;;;;;5058273;28;20165;-76
2022/12/29 14:55:16;;;;;;;2.28;1.05;;;;;;;;;;5058295;28;20193;-76
2022/12/29 14:57:45;;;;;;;8.20;1.60;;;;;;;;;;5058465;28;20173;-76
2022/12/29 15:00:17;;;;;;;2.53;1.00;;;;;;;;;;5057834;28;20922;-76
2022/12/29 15:02:45;;;;;;;2.45;1.02;;;;;;;;;;5057133;28;20185;-76
2022/12/29 15:05:23;;;;;;;4.82;1.33;;;;;;;;;;5058252;28;20178;-77
2022/12/29 15:07:50;;;;;;;7.78;1.42;;;;;;;;;;5058364;28;20173;-76
2022/12/29 15:10:19;;;;;;;4.18;1.00;;;;;;;;;;5056325;28;20332;-77
2022/12/29 15:12:52;;;;;;;6.63;1.45;;;;;;;;;;5057591;28;20166;-76
2022/12/29 15:15:21;;;;;;;9.50;1.48;;;;;;;;;;5057020;28;20999;-76
2022/12/29 15:17:47;;;;;;;4.15;1.00;;;;;;;;;;5056693;28;20193;-76
2022/12/29 15:20:28;;;;;;;12.60;1.75;;;;;;;;;;5056837;28;20177;-76
2022/12/29 15:22:56;;;;;;;5.72;1.90;;;;;;;;;;5056353;28;20185;-76
2022/12/29 15:25:22;;;;;;;5.85;1.45;;;;;;;;;;5057357;28;20177;-80
2022/12/29 15:27:53;;;;;;;5.07;1.58;;;;;;;;;;5057166;28;20174;-77
2022/12/29 15:30:22;;;;;;;9.38;1.75;;;;;;;;;;5057474;28;20969;-77
2022/12/29 15:32:49;;;;;;;6.95;2.25;;;;;;;;;;5056477;28;20212;-77
2022/12/29 15:35:32;;;;;;;4.50;1.85;;;;;;;;;;5056069;28;20209;-77